createdAt,value
2018-09-27T00:02:03.159Z,8.20
2018-09-27T00:04:31.770Z,8.20
2018-09-27T00:07:00.429Z,8.20
2018-09-27T00:09:29.000Z,8.10
2018-09-27T00:11:57.657Z,8.10
2018-09-27T00:14:26.218Z,8.10
2018-09-27T00:16:54.902Z,8.00
2018-09-27T00:19:23.537Z,8.00
2018-09-27T00:21:52.104Z,8.00
2018-09-27T00:24:22.683Z,8.00
2018-09-27T00:26:51.294Z,8.00
2018-09-27T00:29:19.685Z,8.00
2018-09-27T00:31:48.085Z,7.90
2018-09-27T00:34:16.470Z,7.90
2018-09-27T00:36:45.187Z,7.90
2018-09-27T00:39:14.364Z,7.90
2018-09-27T00:41:42.820Z,7.90
2018-09-27T00:44:11.205Z,7.90
2018-09-27T00:46:39.583Z,7.80
2018-09-27T00:49:09.003Z,7.80
2018-09-27T00:51:37.597Z,7.70
2018-09-27T00:54:06.119Z,7.70
2018-09-27T00:56:34.650Z,7.70
2018-09-27T00:59:03.957Z,7.70
2018-09-27T01:01:32.320Z,7.60
2018-09-27T01:04:00.720Z,7.70
2018-09-27T01:06:29.511Z,7.70
2018-09-27T01:08:57.899Z,7.70
2018-09-27T01:11:27.268Z,7.60
2018-09-27T01:13:55.563Z,7.60
2018-09-27T01:16:23.938Z,7.60
2018-09-27T01:18:52.351Z,7.60
2018-09-27T01:21:20.716Z,7.50
2018-09-27T01:23:49.123Z,7.40
2018-09-27T01:26:18.485Z,7.40
2018-09-27T01:28:46.844Z,7.40
2018-09-27T01:31:15.396Z,7.40
2018-09-27T01:33:43.723Z,7.50
2018-09-27T01:36:12.141Z,7.50
2018-09-27T01:38:40.471Z,7.40
2018-09-27T01:41:08.973Z,7.40
2018-09-27T01:43:37.542Z,7.40
2018-09-27T01:46:06.840Z,7.40
2018-09-27T01:48:35.248Z,7.40
2018-09-27T01:51:05.579Z,7.40
2018-09-27T01:53:34.003Z,7.40
2018-09-27T01:56:02.408Z,7.40
2018-09-27T01:58:30.800Z,7.30
2018-09-27T02:00:59.289Z,7.30
2018-09-27T02:03:27.664Z,7.30
2018-09-27T02:05:56.005Z,7.30
2018-09-27T02:08:24.312Z,7.30
2018-09-27T02:10:52.698Z,7.30
2018-09-27T02:13:22.073Z,7.30
2018-09-27T02:15:50.596Z,7.20
2018-09-27T02:18:18.985Z,7.20
2018-09-27T02:20:48.391Z,7.10
2018-09-27T02:23:16.713Z,7.20
2018-09-27T02:25:45.104Z,7.20
2018-09-27T02:28:13.572Z,7.20
2018-09-27T02:30:41.977Z,7.10
2018-09-27T02:33:10.343Z,7.10
2018-09-27T02:35:38.741Z,7.10
2018-09-27T02:38:07.131Z,7.00
2018-09-27T02:40:35.573Z,7.00
2018-09-27T02:43:04.030Z,6.90
2018-09-27T02:45:33.339Z,7.00
2018-09-27T02:48:01.636Z,6.90
2018-09-27T02:50:30.016Z,7.00
2018-09-27T02:52:58.410Z,7.00
2018-09-27T02:55:27.880Z,7.00
2018-09-27T02:57:56.219Z,7.00
2018-09-27T03:00:24.713Z,6.90
2018-09-27T03:02:53.154Z,6.90
2018-09-27T03:05:21.651Z,6.80
2018-09-27T03:07:50.106Z,6.80
2018-09-27T03:10:18.504Z,6.90
2018-09-27T03:12:46.994Z,6.90
2018-09-27T03:15:15.781Z,6.80
2018-09-27T03:17:44.243Z,6.80
2018-09-27T03:20:12.741Z,6.80
2018-09-27T03:22:41.276Z,6.90
2018-09-27T03:25:09.594Z,6.80
2018-09-27T03:27:38.244Z,6.80
2018-09-27T03:30:06.641Z,6.80
2018-09-27T03:32:34.956Z,6.80
2018-09-27T03:35:03.568Z,6.70
2018-09-27T03:37:31.977Z,6.70
2018-09-27T03:40:00.382Z,6.70
2018-09-27T03:42:28.761Z,6.70
2018-09-27T03:44:57.288Z,6.70
2018-09-27T03:47:25.795Z,6.70
2018-09-27T03:49:54.239Z,6.70
2018-09-27T03:52:23.067Z,6.60
2018-09-27T03:54:51.417Z,6.60
2018-09-27T03:57:19.792Z,6.60
2018-09-27T03:59:48.375Z,6.60
2018-09-27T04:02:16.822Z,6.60
2018-09-27T04:04:45.376Z,6.60
2018-09-27T04:07:13.893Z,6.60
2018-09-27T04:09:42.377Z,6.60
2018-09-27T04:12:10.836Z,6.50
2018-09-27T04:14:39.656Z,6.50
2018-09-27T04:17:08.110Z,6.50
2018-09-27T04:19:36.676Z,6.50
2018-09-27T04:22:05.048Z,6.50
2018-09-27T04:24:33.412Z,6.50
2018-09-27T04:27:02.283Z,6.50
2018-09-27T04:29:30.808Z,6.50
2018-09-27T04:31:59.225Z,6.50
2018-09-27T04:34:27.739Z,6.50
2018-09-27T04:36:56.126Z,6.60
2018-09-27T04:39:24.530Z,6.60
2018-09-27T04:41:53.844Z,6.50
2018-09-27T04:44:22.322Z,6.50
2018-09-27T04:46:50.814Z,6.50
2018-09-27T04:49:19.192Z,6.50
2018-09-27T04:51:47.630Z,6.50
2018-09-27T04:54:15.903Z,6.50
2018-09-27T04:56:44.542Z,6.50
2018-09-27T04:59:14.000Z,6.40
2018-09-27T05:01:42.348Z,6.40
2018-09-27T05:04:10.793Z,6.40
2018-09-27T05:06:39.347Z,6.40
2018-09-27T05:09:08.304Z,6.40
2018-09-27T05:11:36.992Z,6.40
2018-09-27T05:14:05.414Z,6.40
2018-09-27T05:16:33.768Z,6.40
2018-09-27T05:19:02.264Z,6.40
2018-09-27T05:21:30.782Z,6.40
2018-09-27T05:23:59.255Z,6.40
2018-09-27T05:26:27.768Z,6.40
2018-09-27T05:28:56.189Z,6.40
2018-09-27T05:31:25.572Z,6.40
2018-09-27T05:33:54.012Z,6.40
2018-09-27T05:36:22.405Z,6.40
2018-09-27T05:38:50.829Z,6.50
2018-09-27T05:41:20.256Z,6.50
2018-09-27T05:43:48.680Z,6.50
2018-09-27T05:46:17.053Z,6.50
2018-09-27T05:48:47.516Z,6.50
2018-09-27T05:51:15.894Z,6.50
2018-09-27T05:53:44.214Z,6.60
2018-09-27T05:56:12.645Z,6.60
2018-09-27T05:58:41.205Z,6.60
2018-09-27T06:01:09.490Z,6.20
2018-09-27T06:03:37.905Z,6.40
2018-09-27T06:06:06.204Z,6.60
2018-09-27T06:08:34.484Z,6.80
2018-09-27T06:11:02.911Z,6.60
2018-09-27T06:13:31.207Z,6.60
2018-09-27T06:15:59.515Z,6.60
2018-09-27T06:18:27.803Z,6.70
2018-09-27T06:20:56.088Z,7.00
2018-09-27T06:23:24.382Z,7.20
2018-09-27T06:25:52.722Z,7.40
2018-09-27T06:28:20.984Z,7.80
2018-09-27T06:30:49.241Z,8.20
2018-09-27T06:33:17.569Z,8.50
2018-09-27T06:35:45.875Z,8.80
2018-09-27T06:38:14.175Z,9.30
2018-09-27T06:40:42.494Z,9.40
2018-09-27T06:43:10.802Z,9.90
2018-09-27T06:45:39.111Z,10.10
2018-09-27T06:48:07.380Z,10.20
2018-09-27T06:50:35.802Z,10.40
2018-09-27T06:53:04.024Z,10.40
2018-09-27T06:55:32.511Z,10.60
2018-09-27T06:58:00.680Z,11.20
2018-09-27T07:00:29.028Z,11.60
2018-09-27T07:02:57.317Z,12.00
2018-09-27T07:05:25.621Z,12.10
2018-09-27T07:07:53.907Z,12.60
2018-09-27T07:10:22.223Z,12.20
2018-09-27T07:12:50.599Z,12.60
2018-09-27T07:15:18.849Z,12.10
2018-09-27T07:17:47.159Z,12.00
2018-09-27T07:20:15.476Z,11.70
2018-09-27T07:22:43.769Z,11.80
2018-09-27T07:25:12.088Z,12.00
2018-09-27T07:27:40.352Z,12.80
2018-09-27T07:30:08.673Z,13.50
2018-09-27T07:32:37.315Z,14.30
2018-09-27T07:35:05.583Z,13.80
2018-09-27T07:37:33.902Z,14.10
2018-09-27T07:40:02.184Z,13.80
2018-09-27T07:42:30.484Z,13.70
2018-09-27T07:44:58.800Z,13.90
2018-09-27T07:47:27.105Z,14.20
2018-09-27T07:49:55.412Z,14.70
2018-09-27T07:52:23.731Z,15.10
2018-09-27T07:54:52.082Z,15.20
2018-09-27T07:57:20.400Z,13.90
2018-09-27T07:59:48.724Z,13.80
2018-09-27T08:02:17.061Z,13.90
2018-09-27T08:04:45.347Z,14.00
2018-09-27T08:07:13.656Z,14.20
2018-09-27T08:09:42.060Z,14.00
2018-09-27T08:12:10.364Z,14.60
2018-09-27T08:14:38.727Z,14.90
2018-09-27T08:17:06.998Z,15.80
2018-09-27T08:19:35.403Z,16.40
2018-09-27T08:22:03.754Z,16.30
2018-09-27T08:24:32.032Z,15.80
2018-09-27T08:27:00.327Z,16.30
2018-09-27T08:29:28.620Z,17.00
2018-09-27T08:31:56.996Z,17.90
2018-09-27T08:34:25.297Z,17.90
2018-09-27T08:36:53.599Z,18.00
2018-09-27T08:39:21.893Z,18.60
2018-09-27T08:41:50.224Z,18.90
2018-09-27T08:44:18.527Z,18.50
2018-09-27T08:46:46.817Z,18.00
2018-09-27T08:49:15.112Z,18.50
2018-09-27T08:51:43.508Z,18.90
2018-09-27T08:54:11.813Z,19.40
2018-09-27T08:56:40.155Z,19.50
2018-09-27T08:59:08.531Z,19.40
2018-09-27T09:01:37.193Z,18.90
2018-09-27T09:04:05.533Z,18.70
2018-09-27T09:06:33.959Z,18.70
2018-09-27T09:09:02.277Z,19.00
2018-09-27T09:11:30.640Z,18.40
2018-09-27T09:13:59.049Z,18.80
2018-09-27T09:16:27.401Z,19.20
2018-09-27T09:18:55.792Z,18.80
2018-09-27T09:21:25.106Z,18.80
2018-09-27T09:23:53.508Z,19.30
2018-09-27T09:26:21.874Z,18.90
2018-09-27T09:28:50.264Z,18.80
2018-09-27T09:31:18.596Z,19.30
2018-09-27T09:33:47.018Z,20.10
2018-09-27T09:36:15.365Z,19.90
2018-09-27T09:38:43.775Z,20.40
2018-09-27T09:41:12.130Z,19.80
2018-09-27T09:43:40.472Z,19.60
2018-09-27T09:46:08.904Z,20.10
2018-09-27T09:48:37.380Z,19.60
2018-09-27T09:51:05.681Z,19.70
2018-09-27T09:53:34.003Z,19.50
2018-09-27T09:56:02.445Z,20.00
2018-09-27T09:58:30.741Z,20.10
2018-09-27T10:00:59.044Z,20.60
2018-09-27T10:03:27.356Z,20.60
2018-09-27T10:05:55.697Z,20.10
2018-09-27T10:08:23.994Z,19.90
2018-09-27T10:10:52.320Z,19.40
2018-09-27T10:13:20.598Z,20.00
2018-09-27T10:15:49.068Z,20.60
2018-09-27T10:18:17.473Z,21.00
2018-09-27T10:20:45.767Z,21.20
2018-09-27T10:23:14.101Z,21.40
2018-09-27T10:25:42.389Z,21.40
2018-09-27T10:28:10.740Z,20.70
2018-09-27T10:30:39.026Z,20.90
2018-09-27T10:33:07.365Z,20.50
2018-09-27T10:35:35.748Z,20.50
2018-09-27T10:38:04.247Z,20.70
2018-09-27T10:40:32.683Z,21.10
2018-09-27T10:43:01.073Z,21.20
2018-09-27T10:45:29.478Z,20.70
2018-09-27T10:47:57.914Z,21.00
2018-09-27T10:50:28.360Z,21.10
2018-09-27T10:52:56.727Z,21.10
2018-09-27T10:55:25.139Z,21.00
2018-09-27T10:57:53.685Z,21.20
2018-09-27T11:00:23.911Z,21.10
2018-09-27T11:02:53.076Z,21.10
2018-09-27T11:05:21.564Z,21.20
2018-09-27T11:07:50.309Z,20.80
2018-09-27T11:10:19.657Z,21.00
2018-09-27T11:12:47.961Z,20.90
2018-09-27T11:15:17.273Z,21.20
2018-09-27T11:17:45.584Z,21.60
2018-09-27T11:20:13.897Z,21.20
2018-09-27T11:22:42.155Z,21.00
2018-09-27T11:25:10.549Z,21.40
2018-09-27T11:27:38.885Z,21.70
2018-09-27T11:30:12.455Z,22.00
2018-09-27T11:32:41.085Z,22.20
2018-09-27T11:35:09.522Z,21.70
2018-09-27T11:37:37.948Z,21.40
2018-09-27T11:40:07.256Z,21.70
2018-09-27T11:42:35.603Z,21.80
2018-09-27T11:45:04.097Z,21.80
2018-09-27T11:47:32.668Z,22.00
2018-09-27T11:50:01.083Z,22.30
2018-09-27T11:52:29.348Z,22.50
2018-09-27T11:54:57.709Z,22.10
2018-09-27T11:57:26.081Z,22.20
2018-09-27T11:59:54.896Z,22.40
2018-09-27T12:02:23.323Z,22.40
2018-09-27T12:04:51.952Z,22.30
2018-09-27T12:07:20.604Z,22.60
2018-09-27T12:09:49.047Z,22.70
2018-09-27T12:12:19.080Z,22.80
2018-09-27T12:14:47.545Z,22.90
2018-09-27T12:17:17.437Z,23.00
2018-09-27T12:19:45.948Z,23.00
2018-09-27T12:22:14.368Z,22.90
2018-09-27T12:24:42.731Z,22.80
2018-09-27T12:27:11.014Z,22.50
2018-09-27T12:29:39.453Z,22.60
2018-09-27T12:32:07.792Z,22.60
2018-09-27T12:34:36.225Z,22.60
2018-09-27T12:37:04.671Z,22.80
2018-09-27T12:39:33.176Z,22.90
2018-09-27T12:42:01.857Z,22.80
2018-09-27T12:44:30.043Z,22.90
2018-09-27T12:46:58.436Z,22.70
2018-09-27T12:49:27.005Z,22.50
2018-09-27T12:51:55.592Z,22.60
2018-09-27T12:54:23.750Z,22.60
2018-09-27T12:56:52.117Z,22.60
2018-09-27T12:59:20.515Z,22.70
2018-09-27T13:01:49.005Z,22.90
2018-09-27T13:04:18.221Z,22.90
2018-09-27T13:06:46.655Z,23.00
2018-09-27T13:09:15.189Z,22.90
2018-09-27T13:11:44.066Z,23.00
2018-09-27T13:14:12.622Z,23.00
2018-09-27T13:16:40.953Z,23.00
2018-09-27T13:19:09.352Z,23.00
2018-09-27T13:21:37.690Z,23.00
2018-09-27T13:24:06.094Z,23.10
2018-09-27T13:26:34.421Z,23.00
2018-09-27T13:29:03.647Z,23.00
2018-09-27T13:31:31.972Z,23.10
2018-09-27T13:34:00.310Z,23.10
2018-09-27T13:36:28.762Z,23.00
2018-09-27T13:38:57.455Z,23.00
2018-09-27T13:41:26.124Z,22.90
2018-09-27T13:43:54.634Z,22.90
2018-09-27T13:46:22.931Z,22.90
2018-09-27T13:48:51.233Z,22.90
2018-09-27T13:51:19.600Z,22.90
2018-09-27T13:53:47.923Z,22.70
2018-09-27T13:56:16.209Z,22.50
2018-09-27T13:58:44.505Z,22.40
2018-09-27T14:01:12.809Z,22.40
2018-09-27T14:03:41.089Z,22.50
2018-09-27T14:06:09.388Z,22.50
2018-09-27T14:08:38.204Z,22.50
2018-09-27T14:11:06.608Z,22.50
2018-09-27T14:13:35.034Z,22.50
2018-09-27T14:16:03.357Z,22.50
2018-09-27T14:18:45.848Z,22.40
2018-09-27T14:21:14.203Z,22.40
2018-09-27T14:23:42.568Z,22.40
2018-09-27T14:26:10.904Z,22.30
2018-09-27T14:28:39.234Z,22.40
2018-09-27T14:31:07.999Z,22.40
2018-09-27T14:33:36.846Z,22.30
2018-09-27T14:36:05.204Z,22.30
2018-09-27T14:38:33.577Z,22.50
2018-09-27T14:41:01.962Z,22.30
2018-09-27T14:43:30.211Z,22.20
2018-09-27T14:45:58.541Z,22.20
2018-09-27T14:48:26.869Z,22.30
2018-09-27T14:50:55.235Z,22.30
2018-09-27T14:53:23.574Z,22.30
2018-09-27T14:55:51.901Z,22.20
2018-09-27T14:58:20.212Z,22.20
2018-09-27T15:00:48.549Z,22.10
2018-09-27T15:03:17.081Z,22.20
2018-09-27T15:05:45.445Z,22.10
2018-09-27T15:08:13.864Z,22.10
2018-09-27T15:10:42.324Z,22.00
2018-09-27T15:13:10.676Z,22.20
2018-09-27T15:15:39.088Z,22.20
2018-09-27T15:18:09.556Z,22.20
2018-09-27T15:20:37.997Z,22.20
2018-09-27T15:23:12.233Z,22.00
2018-09-27T15:25:40.596Z,21.90
2018-09-27T15:28:08.961Z,21.90
2018-09-27T15:30:37.380Z,21.90
2018-09-27T15:33:05.692Z,21.90
2018-09-27T15:35:34.292Z,21.90
2018-09-27T15:38:02.630Z,21.80
2018-09-27T15:40:30.968Z,21.80
2018-09-27T15:42:59.265Z,21.80
2018-09-27T15:45:27.564Z,21.90
2018-09-27T15:47:55.872Z,21.80
2018-09-27T15:50:24.178Z,21.80
2018-09-27T15:52:52.544Z,21.80
2018-09-27T15:55:20.876Z,21.80
2018-09-27T15:57:49.284Z,21.80
2018-09-27T16:00:17.732Z,21.90
2018-09-27T16:02:46.081Z,21.90
2018-09-27T16:05:14.425Z,21.70
2018-09-27T16:07:42.734Z,21.80
2018-09-27T16:10:11.052Z,21.70
2018-09-27T16:12:39.470Z,21.60
2018-09-27T16:15:07.839Z,21.60
2018-09-27T16:17:36.269Z,21.50
2018-09-27T16:20:04.593Z,21.50
2018-09-27T16:22:32.985Z,21.40
2018-09-27T16:25:01.370Z,21.20
2018-09-27T16:27:31.757Z,21.10
2018-09-27T16:30:00.172Z,21.10
2018-09-27T16:32:28.630Z,21.00
2018-09-27T16:34:57.025Z,20.90
2018-09-27T16:37:25.441Z,20.80
2018-09-27T16:39:53.801Z,20.60
2018-09-27T16:42:22.160Z,20.50
2018-09-27T16:44:50.540Z,20.30
2018-09-27T16:47:18.934Z,20.20
2018-09-27T16:49:48.290Z,20.00
2018-09-27T16:52:17.916Z,19.90
2018-09-27T16:54:46.366Z,19.80
2018-09-27T16:57:14.797Z,19.70
2018-09-27T16:59:43.362Z,19.50
2018-09-27T17:02:11.781Z,19.40
2018-09-27T17:04:40.165Z,19.20
2018-09-27T17:07:08.632Z,19.10
2018-09-27T17:09:37.059Z,19.00
2018-09-27T17:12:05.683Z,18.90
2018-09-27T17:14:34.307Z,18.80
2018-09-27T17:17:02.840Z,18.60
2018-09-27T17:19:31.257Z,18.50
2018-09-27T17:21:59.594Z,18.40
2018-09-27T17:24:27.998Z,18.30
2018-09-27T17:26:56.324Z,18.20
2018-09-27T17:29:24.766Z,18.10
2018-09-27T17:31:53.164Z,18.00
2018-09-27T17:34:21.512Z,17.90
2018-09-27T17:36:50.016Z,17.80
2018-09-27T17:39:18.377Z,17.70
2018-09-27T17:41:46.717Z,17.60
2018-09-27T17:44:14.317Z,17.50
2018-09-27T17:46:41.978Z,17.50
2018-09-27T17:49:09.866Z,17.40
2018-09-27T17:51:37.556Z,17.30
2018-09-27T17:54:05.229Z,17.20
2018-09-27T17:56:32.850Z,17.20
2018-09-27T17:59:00.565Z,17.10
2018-09-27T18:01:28.199Z,17.00
2018-09-27T18:03:55.852Z,16.90
2018-09-27T18:06:23.468Z,16.90
2018-09-27T18:08:51.138Z,16.80
2018-09-27T18:11:18.894Z,16.70
2018-09-27T18:13:46.590Z,16.70
2018-09-27T18:16:14.271Z,16.60
2018-09-27T18:18:41.922Z,16.60
2018-09-27T18:21:09.561Z,16.50
2018-09-27T18:23:37.312Z,16.40
2018-09-27T18:26:04.993Z,16.30
2018-09-27T18:28:32.692Z,16.30
2018-09-27T18:31:00.354Z,16.20
2018-09-27T18:33:27.959Z,16.20
2018-09-27T18:35:55.608Z,16.10
2018-09-27T18:38:24.141Z,16.00
2018-09-27T18:40:51.773Z,15.90
2018-09-27T18:43:19.502Z,15.90
2018-09-27T18:45:47.079Z,15.80
2018-09-27T18:48:14.780Z,15.80
2018-09-27T18:50:42.417Z,15.70
2018-09-27T18:53:10.113Z,15.70
2018-09-27T18:55:37.762Z,15.60
2018-09-27T18:58:05.414Z,15.60
2018-09-27T19:00:32.963Z,15.50
2018-09-27T19:03:00.546Z,15.50
2018-09-27T19:05:28.107Z,15.40
2018-09-27T19:07:55.688Z,15.30
2018-09-27T19:10:23.292Z,15.30
2018-09-27T19:12:50.848Z,15.20
2018-09-27T19:15:18.417Z,15.20
2018-09-27T19:17:45.998Z,15.10
2018-09-27T19:20:13.602Z,15.00
2018-09-27T19:22:41.210Z,15.00
2018-09-27T19:25:08.766Z,15.00
2018-09-27T19:27:36.355Z,14.90
2018-09-27T19:30:04.014Z,14.90
2018-09-27T19:32:31.569Z,14.80
2018-09-27T19:34:59.139Z,14.80
2018-09-27T19:37:26.740Z,14.70
2018-09-27T19:39:54.310Z,14.70
2018-09-27T19:42:21.886Z,14.70
2018-09-27T19:44:49.452Z,14.60
2018-09-27T19:47:17.052Z,14.50
2018-09-27T19:49:44.635Z,14.50
2018-09-27T19:52:12.268Z,14.50
2018-09-27T19:54:39.811Z,14.40
2018-09-27T19:57:07.383Z,14.40
2018-09-27T19:59:34.980Z,14.30
2018-09-27T20:02:02.619Z,14.30
2018-09-27T20:04:30.355Z,14.30
2018-09-27T20:06:57.856Z,14.30
2018-09-27T20:09:25.430Z,14.20
2018-09-27T20:11:53.014Z,14.10
2018-09-27T20:14:20.680Z,14.10
2018-09-27T20:16:48.321Z,14.00
2018-09-27T20:19:15.857Z,14.00
2018-09-27T20:21:43.461Z,14.00
2018-09-27T20:24:11.019Z,13.90
2018-09-27T20:26:38.652Z,13.90
2018-09-27T20:29:06.348Z,13.80
2018-09-27T20:31:33.911Z,13.80
2018-09-27T20:34:01.597Z,13.80
2018-09-27T20:36:29.180Z,13.70
2018-09-27T20:38:57.118Z,13.70
2018-09-27T20:41:24.731Z,13.60
2018-09-27T20:43:52.292Z,13.60
2018-09-27T20:46:19.882Z,13.50
2018-09-27T20:48:47.466Z,13.50
2018-09-27T20:51:15.045Z,13.40
2018-09-27T20:53:42.603Z,13.40
2018-09-27T20:56:10.160Z,13.40
2018-09-27T20:58:37.723Z,13.40
2018-09-27T21:01:05.312Z,13.30
2018-09-27T21:03:32.948Z,13.30
2018-09-27T21:06:00.533Z,13.20
2018-09-27T21:08:28.084Z,13.20
2018-09-27T21:10:55.651Z,13.20
2018-09-27T21:13:23.195Z,13.10
2018-09-27T21:15:50.876Z,13.10
2018-09-27T21:18:18.411Z,13.10
2018-09-27T21:20:45.987Z,13.10
2018-09-27T21:23:13.519Z,13.00
2018-09-27T21:25:41.136Z,13.00
2018-09-27T21:28:08.670Z,13.00
2018-09-27T21:30:36.238Z,12.90
2018-09-27T21:33:03.866Z,12.90
2018-09-27T21:35:31.483Z,12.80
2018-09-27T21:37:59.061Z,12.80
2018-09-27T21:40:26.626Z,12.80
2018-09-27T21:42:54.175Z,12.80
2018-09-27T21:45:21.735Z,12.70
2018-09-27T21:47:49.716Z,12.60
2018-09-27T21:50:17.593Z,12.60
2018-09-27T21:52:45.191Z,12.50
2018-09-27T21:55:12.769Z,12.50
2018-09-27T21:57:40.347Z,12.50
2018-09-27T22:00:08.024Z,12.50
2018-09-27T22:02:35.671Z,12.50
2018-09-27T22:05:03.335Z,12.40
2018-09-27T22:07:30.976Z,12.40
2018-09-27T22:09:58.753Z,12.40
2018-09-27T22:12:27.335Z,12.30
2018-09-27T22:14:55.316Z,12.30
2018-09-27T22:17:23.010Z,12.20
2018-09-27T22:19:50.692Z,12.20
2018-09-27T22:22:18.629Z,12.20
2018-09-27T22:24:46.676Z,12.10
2018-09-27T22:27:14.343Z,12.10
2018-09-27T22:29:41.986Z,12.10
2018-09-27T22:32:09.648Z,12.00
2018-09-27T22:34:37.240Z,12.00
2018-09-27T22:37:04.922Z,11.90
2018-09-27T22:39:32.467Z,11.90
2018-09-27T22:42:00.016Z,11.90
2018-09-27T22:44:27.585Z,11.80
2018-09-27T22:46:55.176Z,11.80
2018-09-27T22:49:22.808Z,11.70
2018-09-27T22:51:50.738Z,11.70
2018-09-27T22:54:18.395Z,11.60
2018-09-27T22:56:46.059Z,11.60
2018-09-27T22:59:13.642Z,11.50
2018-09-27T23:01:41.216Z,11.40
2018-09-27T23:04:08.824Z,11.40
2018-09-27T23:06:36.423Z,11.40
2018-09-27T23:09:05.863Z,11.40
2018-09-27T23:11:33.479Z,11.40
2018-09-27T23:14:02.527Z,11.40
2018-09-27T23:16:30.116Z,11.40
2018-09-27T23:18:57.702Z,11.40
2018-09-27T23:21:25.384Z,11.40
2018-09-27T23:23:53.036Z,11.30
2018-09-27T23:26:20.669Z,11.30
2018-09-27T23:28:48.220Z,11.30
2018-09-27T23:31:15.793Z,11.30
2018-09-27T23:33:43.352Z,11.30
2018-09-27T23:36:11.023Z,11.20
2018-09-27T23:38:38.663Z,11.20
2018-09-27T23:41:06.276Z,11.20
2018-09-27T23:43:33.907Z,11.20
2018-09-27T23:46:01.753Z,11.10
2018-09-27T23:48:29.334Z,11.10
2018-09-27T23:50:57.012Z,11.10
2018-09-27T23:53:24.668Z,11.10
2018-09-27T23:55:52.307Z,11.10
2018-09-27T23:58:19.917Z,11.00
